Time;durP1;ratioP1;P1;durP2;ratioP2;P2;SDS_P1;SDS_P2;PMS_P1;PMS_P2;Temp;Humidity;BMP_temperature;BMP_pressure;BME280_temperature;BME280_humidity;BME280_pressure;Samples;Min_cycle;Max_cycle;Signal;HPM_P1;HPM_P2
2022/07/14 00:00:37;;;;;;;7.82;2.40;;;17.20;99.90;;;;;;5098844;28;20074;-61
2022/07/14 00:03:02;;;;;;;;;;;17.10;99.90;;;;;;5103445;28;20082;-59
2022/07/14 00:05:29;;;;;;;3.83;2.60;;;17.00;99.90;;;;;;5102237;28;19923;-61
2022/07/14 00:07:54;;;;;;;;;;;17.00;99.90;;;;;;5102876;28;20043;-62
2022/07/14 00:10:20;;;;;;;2.80;2.28;;;17.00;99.90;;;;;;5101425;28;19968;-61
2022/07/14 00:12:45;;;;;;;4.95;2.67;;;17.00;99.90;;;;;;5095041;28;20512;-62
2022/07/14 00:15:11;;;;;;;7.20;2.75;;;17.00;99.90;;;;;;5082391;28;20122;-61
2022/07/14 00:17:37;;;;;;;4.40;2.30;;;16.90;99.90;;;;;;5081632;28;20462;-62
2022/07/14 00:20:04;;;;;;;5.60;2.45;;;16.90;99.90;;;;;;5088426;28;20040;-61
2022/07/14 00:22:29;;;;;;;8.80;3.13;;;16.90;99.90;;;;;;5089890;28;20040;-61
2022/07/14 00:24:55;;;;;;;;;;;;;;;;;;5090812;28;20043;-62
2022/07/14 00:27:21;;;;;;;3.75;2.50;;;;;;;;;;5089907;28;19927;-61
2022/07/14 00:29:47;;;;;;;5.22;3.00;;;;;;;;;;5086896;28;20047;-61
2022/07/14 00:32:13;;;;;;;;;;;;;;;;;;5087850;28;20165;-60
2022/07/14 00:34:40;;;;;;;5.95;2.65;;;;;;;;;;5088521;28;20010;-59
2022/07/14 00:37:06;;;;;;;4.90;2.85;;;;;;;;;;5086483;28;20178;-60
2022/07/14 00:39:54;;;;;;;4.95;2.92;;;;;;;;;;5086543;28;20712;-61
2022/07/14 00:42:35;;;;;;;2.88;2.17;;;;;;;;;;5088934;28;20415;-59
2022/07/14 00:45:02;;;;;;;8.02;2.58;;;;;;;;;;5067662;28;20074;-60
2022/07/14 00:47:28;;;;;;;7.30;3.05;;;;;;;;;;5068741;28;20044;-60
2022/07/14 00:49:55;;;;;;;13.07;3.72;;;;;;;;;;5087117;28;20078;-60
2022/07/14 00:52:22;;;;;;;4.32;2.63;;;;;;;;;;5088663;28;20044;-60
2022/07/14 00:54:48;;;;;;;6.30;2.60;;;;;;;;;;5088545;28;20040;-59
2022/07/14 00:57:14;;;;;;;;;;;;;;;;;;5089274;28;20044;-60
2022/07/14 00:59:40;;;;;;;4.43;2.97;;;;;;;;;;5084344;28;19920;-60
2022/07/14 01:02:06;;;;;;;;;;;;;;;;;;5087853;28;20043;-60
2022/07/14 01:04:32;;;;;;;5.35;2.72;;;;;;;;;;5087678;28;20013;-60
2022/07/14 01:06:57;;;;;;;;;;;;;;;;;;5088276;28;20523;-59
2022/07/14 01:09:23;;;;;;;7.20;2.75;;;;;;;;;;5086643;28;20467;-60
2022/07/14 01:11:49;;;;;;;;;;;;;;;;;;5088768;28;20048;-60
2022/07/14 01:14:15;;;;;;;5.40;3.17;;;;;;;;;;5088098;28;19943;-60
2022/07/14 01:16:42;;;;;;;5.30;2.85;;;;;;;;;;5086423;28;20040;-60
2022/07/14 01:19:08;;;;;;;5.18;3.53;;;;;;;;;;5088200;28;20574;-60
2022/07/14 01:21:35;;;;;;;5.32;3.05;;;;;;;;;;5087855;28;20517;-60
2022/07/14 01:24:00;;;;;;;;;;;;;;;;;;5088390;28;20043;-60
2022/07/14 01:26:26;;;;;;;7.10;3.05;;;;;;;;;;5087522;28;19920;-60
2022/07/14 01:28:52;;;;;;;;;;;;;;;;;;5086498;28;20104;-60
2022/07/14 01:31:18;;;;;;;6.82;2.63;;;;;;;;;;5086163;28;19927;-60
2022/07/14 01:33:44;;;;;;;;;;;;;;;;;;5087914;28;20040;-60
2022/07/14 01:36:10;;;;;;;3.33;2.63;;;;;;;;;;5087230;28;20342;-60
2022/07/14 01:38:37;;;;;;;;;;;;;;;;;;5087258;28;20040;-60
2022/07/14 01:41:03;;;;;;;3.50;2.60;;;;;;;;;;5087338;28;19915;-60
2022/07/14 01:43:29;;;;;;;;;;;;;;;;;;5087727;28;20050;-60
2022/07/14 01:45:55;;;;;;;3.38;2.78;;;;;;;;;;5087423;28;19920;-60
2022/07/14 01:48:21;;;;;;;5.72;3.03;;;;;;;;;;5079905;28;20484;-60
2022/07/14 01:50:47;;;;;;;;;;;;;;;;;;5086883;28;20044;-59
2022/07/14 01:53:14;;;;;;;6.28;3.20;;;;;;;;;;5087565;28;19998;-60
2022/07/14 01:55:40;;;;;;;6.40;3.38;;;;;;;;;;5085764;28;20040;-59
2022/07/14 01:58:06;;;;;;;;;;;;;;;;;;5086241;28;20550;-60
2022/07/14 02:00:32;;;;;;;6.22;2.83;;;;;;;;;;5085125;28;19916;-60
2022/07/14 02:02:58;;;;;;;;;;;;;;;;;;5088754;28;20059;-60
2022/07/14 02:05:24;;;;;;;3.42;2.80;;;;;;;;;;5085807;28;19966;-60
2022/07/14 02:07:50;;;;;;;7.93;2.90;;;;;;;;;;5086402;28;20040;-60
2022/07/14 02:13:01;;;;;;;3.22;2.42;;;;;;;;;;5087859;28;19916;-57
2022/07/14 02:15:28;;;;;;;;;;;;;;;;;;5087047;28;20040;-60
2022/07/14 02:17:54;;;;;;;4.85;3.03;;;;;;;;;;5087181;28;19984;-59
2022/07/14 02:20:20;;;;;;;;;;;;;;;;;;5087010;28;20101;-60
2022/07/14 02:22:46;;;;;;;10.23;3.35;;;;;;;;;;5086162;28;20380;-58
2022/07/14 02:25:12;;;;;;;;;;;;;;;;;;5087460;28;20043;-59
2022/07/14 02:27:38;;;;;;;6.88;3.35;;;;;;;;;;5086507;28;19915;-59
2022/07/14 02:30:03;;;;;;;;;;;;;;;;;;5085763;28;20039;-59
2022/07/14 02:32:31;;;;;;;4.93;2.80;;;;;;;;;;5084365;28;19920;-60
2022/07/14 02:34:57;;;;;;;3.53;2.80;;;;;;;;;;5086641;28;20676;-60
2022/07/14 02:37:23;;;;;;;4.30;2.83;;;;;;;;;;5085298;28;20036;-59
2022/07/14 02:39:49;;;;;;;6.85;3.13;;;;;;;;;;5085998;28;20044;-60
2022/07/14 02:42:15;;;;;;;;;;;;;;;;;;5087000;28;20051;-60
2022/07/14 02:44:41;;;;;;;5.47;3.20;;;;;;;;;;5086192;28;19919;-60
2022/07/14 02:47:07;;;;;;;;;;;;;;;;;;5085153;28;20395;-59
2022/07/14 02:49:33;;;;;;;5.25;2.88;;;;;;;;;;5086560;28;19916;-58
2022/07/14 02:51:59;;;;;;;3.17;2.53;;;;;;;;;;5085912;28;20126;-57
2022/07/14 02:54:25;;;;;;;;;;;;;;;;;;5087158;28;20462;-59
2022/07/14 02:56:51;;;;;;;6.05;2.92;;;;;;;;;;5086272;28;19927;-59
2022/07/14 02:59:17;;;;;;;;;;;;;;;;;;5084394;28;20381;-59
2022/07/14 03:01:43;;;;;;;5.97;3.13;;;;;;;;;;5085269;28;19916;-60
2022/07/14 03:04:09;;;;;;;;;;;;;;;;;;5085951;28;20040;-60
2022/07/14 03:06:35;;;;;;;5.60;3.33;;;;;;;;;;5084988;28;19934;-58
2022/07/14 03:09:02;;;;;;;;;;;;;;;;;;5086057;28;20128;-58
2022/07/14 03:11:28;;;;;;;4.45;3.25;;;;;;;;;;5087501;28;19928;-59
2022/07/14 03:13:54;;;;;;;;;;;;;;;;;;5085676;28;20621;-60
2022/07/14 03:16:20;;;;;;;5.17;3.10;;;;;;;;;;5087788;28;19919;-60
2022/07/14 03:18:46;;;;;;;;;;;;;;;;;;5084739;28;20565;-60
2022/07/14 03:21:13;;;;;;;11.57;3.70;;;;;;;;;;5085845;28;20327;-60
2022/07/14 03:23:39;;;;;;;5.88;3.10;;;;;;;;;;5086245;28;20036;-60
2022/07/14 03:26:05;;;;;;;5.15;3.53;;;;;;;;;;5086700;28;20040;-60
2022/07/14 03:28:31;;;;;;;5.65;3.40;;;;;;;;;;5082846;28;20040;-60
2022/07/14 03:30:58;;;;;;;3.40;2.92;;;;;;;;;;5080629;28;20032;-59
2022/07/14 03:33:24;;;;;;;5.53;3.47;;;;;;;;;;5085961;28;20044;-60
2022/07/14 03:35:50;;;;;;;6.13;3.88;;;;;;;;;;5086324;28;20038;-60
2022/07/14 03:38:17;;;;;;;4.22;3.10;;;;;;;;;;5085282;28;20085;-57
2022/07/14 03:40:43;;;;;;;7.63;3.55;;;;;;;;;;5086937;28;20067;-60
2022/07/14 03:43:09;;;;;;;9.20;3.50;;;;;;;;;;5086353;28;20035;-60
2022/07/14 03:45:35;;;;;;;;;;;;;;;;;;5086132;28;20040;-60
2022/07/14 03:48:01;;;;;;;10.65;3.55;;;;;;;;;;5087344;28;19919;-60
2022/07/14 03:50:27;;;;;;;;;;;;;;;;;;5084233;28;20063;-60
2022/07/14 03:52:53;;;;;;;5.13;3.53;;;;;;;;;;5080037;28;20372;-60
2022/07/14 03:55:19;;;;;;;;;;;;;;;;;;5084179;28;20067;-60
2022/07/14 03:57:45;;;;;;;5.95;3.55;;;;;;;;;;5079629;28;19943;-60
2022/07/14 04:00:11;;;;;;;;;;;;;;;;;;5082866;28;20720;-60
2022/07/14 04:02:37;;;;;;;4.33;3.37;;;;;;;;;;5084977;28;19916;-60
2022/07/14 04:05:04;;;;;;;5.13;3.33;;;;;;;;;;5081475;28;20051;-60
2022/07/14 04:07:30;;;;;;;6.78;3.45;;;;;;;;;;5074782;28;20048;-60
2022/07/14 04:09:56;;;;;;;;;;;;;;;;;;5077872;28;20032;-60
2022/07/14 04:12:22;;;;;;;4.93;3.30;;;;;;;;;;5077581;28;19924;-59
2022/07/14 04:14:48;;;;;;;4.53;3.17;;;;;;;;;;5080002;28;20036;-59
2022/07/14 04:17:14;;;;;;;;;;;;;;;;;;5081430;28;20159;-60
2022/07/14 04:19:40;;;;;;;7.90;3.42;;;;;;;;;;5082633;28;20041;-60
2022/07/14 04:22:06;;;;;;;;;;;;;;;;;;5086972;28;20036;-58
2022/07/14 04:24:32;;;;;;;5.75;3.20;;;;;;;;;;5077924;28;19927;-60
2022/07/14 04:26:58;;;;;;;4.95;3.60;;;;;;;;;;5077991;28;20690;-60
2022/07/14 04:29:24;;;;;;;6.40;3.58;;;;;;;;;;5078312;28;20068;-60
2022/07/14 04:31:50;;;;;;;;;;;;;;;;;;5081745;28;20117;-59
2022/07/14 04:34:16;;;;;;;5.90;3.50;;;;;;;;;;5077097;28;19966;-60
2022/07/14 04:36:42;;;;;;;;;;;;;;;;;;5077076;28;20036;-60
2022/07/14 04:39:08;;;;;;;5.55;3.42;;;;;;;;;;5067955;28;19920;-61
2022/07/14 04:41:36;;;;;;;8.30;4.38;;;;;;;;;;5071849;28;20040;-60
2022/07/14 04:44:02;;;;;;;10.23;4.35;;;;;;;;;;5088295;28;20131;-60
2022/07/14 04:46:28;;;;;;;8.60;4.10;;;;;;;;;;5089012;28;20067;-61
2022/07/14 04:54:24;;;;;;;9.57;4.38;;;;;;;;;;5081221;28;20037;-60
2022/07/14 04:56:50;;;;;;;12.65;5.53;;;;;;;;;;5077833;28;20048;-61
2022/07/14 04:59:16;;;;;;;;;;;;;;;;;;5087146;28;20039;-60
2022/07/14 05:01:42;;;;;;;12.00;5.88;;;;;;;;;;5088022;28;20303;-60
2022/07/14 05:04:08;;;;;;;;;;;;;;;;;;5088877;28;20088;-60
2022/07/14 05:06:34;;;;;;;15.07;6.20;;;;;;;;;;5088380;28;19920;-61
2022/07/14 05:09:00;;;;;;;;;;;;;;;;;;5088485;28;20047;-62
2022/07/14 05:11:26;;;;;;;11.98;5.65;;;;;;;;;;5088852;28;19916;-57
2022/07/14 05:13:55;;;;;;;14.43;5.97;;;;;;;;;;5088237;28;20039;-60
2022/07/14 05:16:21;;;;;;;13.48;5.80;;;;;;;;;;5089476;28;20116;-60
2022/07/14 05:18:47;;;;;;;;;;;;;;;;;;5090068;28;20040;-60
2022/07/14 05:21:13;;;;;;;20.08;5.78;;;;;;;;;;5088133;28;19916;-60
2022/07/14 05:23:39;;;;;;;13.32;6.10;;;;;;;;;;5088735;28;20580;-61
2022/07/14 05:26:05;;;;;;;;;;;;;;;;;;5088561;28;20047;-61
2022/07/14 05:28:31;;;;;;;10.68;5.45;;;;;;;;;;5087309;28;20478;-60
2022/07/14 05:30:57;;;;;;;11.43;5.85;;;;;;;;;;5088784;28;20039;-61
2022/07/14 05:33:23;;;;;;;14.35;7.80;;;;;;;;;;5088721;28;20039;-61
2022/07/14 05:35:49;;;;;;;;;;;;;;;;;;5090129;28;20451;-61
2022/07/14 05:38:15;;;;;;;14.15;5.97;;;;;;;;;;5089757;28;19958;-61
2022/07/14 05:40:41;;;;;;;;;;;;;;;;;;5089111;28;20071;-60
2022/07/14 05:43:07;;;;;;;10.70;5.72;;;;;;;;;;5088063;28;20370;-61
2022/07/14 05:45:33;;;;;;;16.10;7.25;;;;;;;;;;5088111;28;20032;-61
2022/07/14 05:47:59;;;;;;;13.30;7.38;;;;;;;;;;5085700;28;20035;-61
2022/07/14 05:50:25;;;;;;;16.40;6.20;;;;;;;;;;5088203;28;20048;-60
2022/07/14 05:52:51;;;;;;;;;;;;;;;;;;5087819;28;20050;-61
2022/07/14 05:55:17;;;;;;;14.27;6.65;;;;;;;;;;5087025;28;19916;-60
2022/07/14 05:57:43;;;;;;;;;;;;;;;;;;5084077;28;20075;-60
2022/07/14 06:00:10;;;;;;;11.90;6.03;;;;;;;;;;5083162;28;19963;-60
2022/07/14 06:02:36;;;;;;;12.13;7.50;;;;;;;;;;5087315;28;20066;-60
2022/07/14 06:05:02;;;;;;;;;;;;;;;;;;5088543;28;20551;-60
2022/07/14 06:07:28;;;;;;;17.17;7.45;;;;;;;;;;5087481;28;19924;-61
2022/07/14 06:09:53;;;;;;;;;;;;;;;;;;5087898;28;20036;-61
2022/07/14 06:12:19;;;;;;;8.35;5.57;;;;;;;;;;5087364;28;19926;-57
2022/07/14 06:14:45;;;;;;;;;;;;;;;;;;5086784;28;20456;-60
2022/07/14 06:17:11;;;;;;;10.68;5.35;;;;;;;;;;5088004;28;19920;-60
2022/07/14 06:19:37;;;;;;;12.15;5.85;;;;;;;;;;5087439;28;20040;-60
2022/07/14 06:22:05;;;;;;;13.75;6.28;;;;;;;;;;5086756;28;20032;-60
2022/07/14 06:24:31;;;;;;;12.13;5.47;;;;;;;;;;5087261;28;20089;-60
2022/07/14 06:26:57;;;;;;;9.75;5.75;;;;;;;;;;5086578;28;20043;-60
2022/07/14 06:29:23;;;;;;;;;;;;;;;;;;5085533;28;20051;-60
2022/07/14 06:31:55;;;;;;;11.57;4.78;;;;;;;;;;5081592;28;19916;-60
2022/07/14 06:34:21;;;;;;;16.23;6.60;;;;;;;;;;5083018;28;20039;-60
2022/07/14 06:36:47;;;;;;;17.30;7.03;;;;;;;;;;5082181;28;20055;-63
2022/07/14 06:39:14;;;;;;;;;;;;;;;;;;5086169;28;20098;-64
2022/07/14 06:41:40;;;;;;;21.63;6.85;;;;;;;;;;5078718;28;20395;-64
2022/07/14 06:44:06;;;;;;;14.38;7.35;;;;;;;;;;5085985;28;20086;-64
2022/07/14 06:46:32;;;;;;;20.30;9.00;;;;;;;;;;5086407;28;20569;-63
2022/07/14 06:48:59;;;;;;;21.35;8.48;;;;;;;;;;5087049;28;20040;-64
2022/07/14 06:51:25;;;;;;;14.65;7.22;;;;;;;;;;5078586;28;20036;-60
2022/07/14 06:53:51;;;;;;;16.10;7.95;;;;;;;;;;5074414;28;20044;-63
2022/07/14 06:56:17;;;;;;;17.13;7.63;;;;;;;;;;5080606;28;20036;-64
2022/07/14 06:58:43;;;;;;;;;;;;;;;;;;5086164;28;20061;-63
2022/07/14 07:01:09;;;;;;;18.42;6.78;;;;;;;;;;5079198;28;19920;-64
2022/07/14 07:03:35;;;;;;;16.52;7.10;;;;;;;;;;5075570;28;20040;-64
2022/07/14 07:08:46;;;;;;;21.35;7.78;;;;;;;;;;5071632;28;19924;-63
2022/07/14 07:11:12;;;;;;;12.35;6.60;;;;;;;;;;5076912;28;20033;-62
2022/07/14 07:13:38;;;;;;;14.45;7.85;;;;;;;;;;5085551;28;20132;-64
2022/07/14 07:16:04;;;;;;;;;;;;;;;;;;5081823;28;20119;-63
2022/07/14 07:18:30;;;;;;;13.67;6.10;;;;;;;;;;5079390;28;19970;-63
2022/07/14 07:20:57;;;;;;;13.50;5.82;;;;;;;;;;5082675;28;20101;-63
2022/07/14 07:23:23;;;;;;;15.75;7.70;;;;;;;;;;5085161;28;20039;-63
2022/07/14 07:25:48;;;;;;;;;;;;;;;;;;5081957;28;20044;-63
2022/07/14 07:28:14;;;;;;;7.88;5.95;;;;;;;;;;5083467;28;19916;-64
2022/07/14 07:30:40;;;;;;;;;;;;;;;;;;5077723;28;20028;-67
2022/07/14 07:33:08;;;;;;;15.57;6.13;;;;;;;;;;5084005;28;19945;-64
2022/07/14 07:35:33;;;;;;;11.25;6.45;;;;;;;;;;5085247;28;20480;-64
2022/07/14 07:37:59;;;;;;;;;;;;;;;;;;5086588;28;20070;-65
2022/07/14 07:40:25;;;;;;;12.93;6.38;;;;;;;;;;5086503;28;19923;-64
2022/07/14 07:42:51;;;;;;;14.68;7.25;;;;;;;;;;5085728;28;20032;-64
2022/07/14 07:45:17;;;;;;;;;;;;;;;;;;5089234;28;20042;-64
2022/07/14 07:47:43;;;;;;;16.80;8.05;;;;;;;;;;5088941;28;19921;-65
2022/07/14 07:50:10;;;;;;;14.15;8.05;;;;;;;;;;5084111;28;20036;-64
2022/07/14 07:52:37;;;;;;;24.80;8.55;;;;;;;;;;5085760;28;20048;-64
2022/07/14 07:55:13;;;;;;;18.52;7.60;;;;;;;;;;5088721;28;20044;-65
2022/07/14 07:57:39;;;;;;;20.58;8.60;;;;;;;;;;5089917;28;20115;-64
2022/07/14 08:00:06;;;;;;;14.32;7.65;;;;;;;;;;5086783;28;20044;-65
2022/07/14 08:02:32;;;;;;;17.83;7.75;;;;;;;;;;5080034;28;20037;-64
2022/07/14 08:04:58;;;;;;;20.58;7.93;;;;;;;;;;5072316;28;20125;-65
2022/07/14 08:07:24;;;;;;;;;;;;;;;;;;5088500;28;20086;-64
2022/07/14 08:09:50;;;;;;;15.80;6.57;;;;;;;;;;5088369;28;19916;-64
2022/07/14 08:12:16;;;;;;;23.60;9.35;;;;;;;;;;5089783;28;20032;-64
2022/07/14 08:14:48;;;;;;;16.50;7.78;;;;;;;;;;5069154;28;20040;-64
2022/07/14 08:17:15;;;;;;;24.48;8.27;;;;;;;;;;5088891;28;20507;-63
2022/07/14 08:19:41;;;;;;;19.42;7.70;;;;;;;;;;5074055;28;20108;-64
2022/07/14 08:22:07;;;;;;;13.25;7.75;;;;;;;;;;5088047;28;20077;-64
2022/07/14 08:24:33;;;;;;;;;;;;;;;;;;5090353;28;20036;-64
2022/07/14 08:26:59;;;;;;;18.75;6.82;;;;;;;;;;5088025;28;19927;-65
2022/07/14 08:29:25;;;;;;;18.98;8.45;;;;;;;;;;5089611;28;20043;-65
2022/07/14 08:31:51;;;;;;;31.27;9.27;;;;;;;;;;5087687;28;20032;-65
2022/07/14 08:34:16;;;;;;;;;;;;;;;;;;5087057;28;20036;-64
2022/07/14 08:36:42;;;;;;;18.25;8.23;;;;;;;;;;5086359;28;19941;-64
2022/07/14 08:39:08;;;;;;;;;;;;;;;;;;5091908;28;20032;-64
2022/07/14 08:41:38;;;;;;;21.67;8.05;;;;;;;;;;5088867;28;19927;-65
2022/07/14 08:44:05;;;;;;;18.85;9.23;;;;;;;;;;5087400;28;20043;-64
2022/07/14 08:46:31;;;;;;;14.93;6.53;;;;;;;;;;5088526;28;20048;-65
2022/07/14 08:48:57;;;;;;;26.42;9.38;;;;;;;;;;5088793;28;20097;-64
2022/07/14 08:51:26;;;;;;;;;;;;;;;;;;5089585;28;20048;-64
2022/07/14 08:53:52;;;;;;;15.82;7.13;;;;;;;;;;5089815;28;19915;-65
2022/07/14 08:56:19;;;;;;;27.15;8.27;;;;;;;;;;5084390;28;20415;-64
2022/07/14 08:58:45;;;;;;;19.00;6.88;;;;;;;;;;5088033;28;20503;-64
2022/07/14 09:01:11;;;;;;;15.80;8.20;;;;;;;;;;5087054;28;20051;-65
2022/07/14 09:03:38;;;;;;;21.05;8.55;;;;;;;;;;5090229;28;20118;-64
2022/07/14 09:06:07;;;;;;;17.02;7.72;;;;;;;;;;5088426;28;20035;-64
2022/07/14 09:08:54;;;;;;;19.98;7.93;;;;;;;;;;5086924;28;20024;-64
2022/07/14 09:11:20;;;;;;;15.98;7.95;;;;;;;;;;5078023;28;20031;-64
2022/07/14 09:13:46;;;;;;;15.77;6.20;;;;;;;;;;5087967;28;20074;-64
2022/07/14 09:16:12;;;;;;;;;;;;;;;;;;5087666;28;20114;-60
2022/07/14 09:18:39;;;;;;;18.42;5.50;;;;;;;;;;5087681;28;20361;-64
2022/07/14 09:21:18;;;;;;;12.75;5.90;;;;;;;;;;5087704;28;20063;-64
2022/07/14 09:23:45;;;;;;;12.95;5.00;;;;;;;;;;5084461;28;20064;-65
2022/07/14 09:26:16;;;;;;;9.63;4.20;;;;;;;;;;5083528;28;20032;-64
2022/07/14 09:28:42;;;;;;;19.27;6.13;;;;;;;;;;5082388;28;20074;-65
2022/07/14 09:31:28;;;;;;;15.23;5.35;;;;;;;;;;5083467;28;20040;-64
2022/07/14 09:33:58;;;;;;;12.25;4.72;;;;;;;;;;5082840;28;20118;-65
2022/07/14 09:36:26;;;;;;;13.60;5.55;;;;;;;;;;5087365;28;20044;-63
2022/07/14 09:38:52;;;;;;;14.43;5.70;;;;;;;;;;5085841;28;20035;-64
2022/07/14 09:41:20;;;;;;;14.07;5.53;;;;;;;;;;5087303;28;20541;-65
2022/07/14 09:44:06;;;;;;;17.25;5.72;;;;;;;;;;5087874;28;20048;-65
2022/07/14 09:46:45;;;;;;;13.57;5.40;;;;;;;;;;5086931;28;20130;-65
2022/07/14 09:49:12;;;;;;;16.05;5.10;;;;;;;;;;5087355;28;20399;-66
2022/07/14 09:51:52;;;;;;;20.67;5.82;;;;;;;;;;5086500;28;20127;-67
2022/07/14 09:54:38;;;;;;;12.13;3.95;;;;;;;;;;5086605;28;20039;-64
2022/07/14 09:57:07;;;;;;;15.98;4.88;;;;;;;;;;5075478;28;20036;-65
2022/07/14 09:59:43;;;;;;;11.32;5.85;;;;;;;;;;5079499;28;20040;-64
2022/07/14 10:02:12;;;;;;;24.00;6.63;;;;;;;;;;5073474;28;20043;-64
2022/07/14 10:04:38;;;;;;;14.68;6.57;;;;;;;;;;5080538;28;20044;-64
2022/07/14 10:07:04;;;;;;;17.10;5.70;;;;;;;;;;5075844;28;20465;-64
2022/07/14 10:09:32;;;;;;;14.43;4.75;;;;;;;;;;5078731;28;20036;-64
2022/07/14 10:12:01;;;;;;;11.25;5.15;;;;;;;;;;5077920;28;20071;-65
2022/07/14 10:14:27;;;;;;;16.85;5.45;;;;;;;;;;5086271;28;20044;-64
2022/07/14 10:16:54;;;;;;;14.77;5.05;;;;;;;;;;5087119;28;20046;-64
2022/07/14 10:19:21;;;;;;;17.10;5.00;;;;;;;;;;5087581;28;20115;-64
2022/07/14 10:21:47;;;;;;;16.27;4.82;;;;;;;;;;5084778;28;20043;-64
2022/07/14 10:24:13;;;;;;;21.65;5.30;;;;;;;;;;5086297;28;20036;-64
2022/07/14 10:26:39;;;;;;;10.48;3.80;;;;;;;;;;5081004;28;20044;-64
2022/07/14 10:29:07;;;;;;;10.13;3.50;;;;;;;;;;5081057;28;20030;-64
2022/07/14 10:31:56;;;;;;;15.80;3.88;;;;;;;;;;5078120;28;20071;-64
2022/07/14 10:34:34;;;;;;;8.77;3.63;;;;;;;;;;5046603;28;20044;-66
2022/07/14 10:37:14;;;;;;;10.25;4.15;;;;;;;;;;5085947;28;20036;-64
2022/07/14 10:39:49;;;;;;;14.93;4.60;;;;;;;;;;5083127;28;20042;-64
2022/07/14 10:42:17;;;;;;;11.80;4.13;;;;;;;;;;5087013;28;20081;-64
2022/07/14 10:44:45;;;;;;;11.68;4.47;;;;;;;;;;5067681;28;20038;-64
2022/07/14 10:47:15;;;;;;;13.68;4.10;;;;;;;;;;5065912;28;20131;-64
2022/07/14 10:50:00;;;;;;;9.85;4.47;;;;;;;;;;5085538;28;20040;-64
2022/07/14 10:52:27;;;;;;;17.27;5.25;;;;;;;;;;5086198;28;20047;-64
2022/07/14 10:55:11;;;;;;;9.48;3.60;;;;;;;;;;5066197;28;20036;-64
2022/07/14 10:57:37;;;;;;;13.82;4.20;;;;;;;;;;5066679;28;20047;-64
2022/07/14 11:00:07;;;;;;;11.77;3.50;;;;;;;;;;5086267;28;20093;-64
2022/07/14 11:02:34;;;;;;;10.30;3.20;;;;;;;;;;5085676;28;20032;-65
2022/07/14 11:05:04;;;;;;;10.45;3.80;;;;;;;;;;5085664;28;20512;-64
2022/07/14 11:07:33;;;;;;;9.93;3.83;;;;;;;;;;5086687;28;20110;-64
2022/07/14 11:09:59;;;;;;;14.55;3.17;;;;;;;;;;5085086;28;20123;-65
2022/07/14 11:12:25;;;;;;;;;;;;;;;;;;5086658;28;20123;-64
2022/07/14 11:14:51;;;;;;;6.22;2.53;;;;;;;;;;5085676;28;19920;-65
2022/07/14 11:17:37;;;;;;;8.40;3.13;;;;;;;;;;5085467;28;20047;-63
2022/07/14 11:20:04;;;;;;;11.75;3.28;;;;;;;;;;5084946;28;20048;-64
2022/07/14 11:22:30;;;;;;;6.50;2.70;;;;;;;;;;5085200;28;20036;-64
2022/07/14 11:24:56;;;;;;;;;;;;;;;;;;5083904;28;20086;-65
2022/07/14 11:27:47;;;;;;;6.07;2.17;;;;;;;;;;5073323;28;19924;-62
2022/07/14 11:30:26;;;;;;;6.15;2.17;;;;;;;;;;5076309;28;20383;-64
2022/07/14 11:32:58;;;;;;;10.55;2.38;;;;;;;;;;5078299;28;20071;-63
2022/07/14 11:38:34;;;;;;;8.95;2.33;;;;;;;;;;5084831;28;20041;-64
2022/07/14 11:41:02;;;;;;;8.52;1.98;;;;;;;;;;5077909;28;20043;-65
2022/07/14 11:43:31;;;;;;;5.20;2.00;;;;;;;;;;5071471;28;20117;-64
2022/07/14 11:46:07;;;;;;;4.75;2.08;;;;;;;;;;5080287;28;20051;-64
2022/07/14 11:48:33;;;;;;;;;;;;;;;;;;5084305;28;20033;-65
2022/07/14 11:51:02;;;;;;;4.25;1.48;;;;;;;;;;5084556;28;20340;-64
2022/07/14 11:53:29;;;;;;;6.55;2.70;;;;;;;;;;5086253;28;20051;-64
2022/07/14 11:55:55;;;;;;;6.03;2.33;;;;;;;;;;5087144;28;20036;-64
2022/07/14 11:58:24;;;;;;;7.80;1.50;;;;;;;;;;5088391;28;20069;-65
2022/07/14 12:00:54;;;;;;;5.55;1.70;;;;;;;;;;5087825;28;20036;-63
2022/07/14 12:03:20;;;;;;;5.10;1.80;;;;;;;;;;5084422;28;20044;-64
2022/07/14 12:05:51;;;;;;;6.85;1.73;;;;;;;;;;5086220;28;20093;-64
2022/07/14 12:08:21;;;;;;;5.43;1.85;;;;;;;;;;5081815;28;20982;-63
2022/07/14 12:10:49;;;;;;;6.50;2.20;;;;;;;;;;5083818;28;20419;-65
2022/07/14 12:13:15;;;;;;;4.80;2.15;;;;;;;;;;5085020;28;20552;-65
2022/07/14 12:15:41;;;;;;;5.28;2.28;;;;;;;;;;5078250;28;20070;-64
2022/07/14 12:18:09;;;;;;;9.52;2.40;;;;;;;;;;5085697;28;20056;-65
2022/07/14 12:20:42;;;;;;;5.10;2.08;;;;;;;;;;5087064;28;20040;-65
2022/07/14 12:23:09;;;;;;;9.60;1.92;;;;;;;;;;5089142;28;20047;-64
2022/07/14 12:25:37;;;;;;;7.82;2.65;;;;;;;;;;5088973;28;20531;-65
2022/07/14 12:28:04;;;;;;;7.13;2.10;;;;;;;;;;5087560;28;20039;-64
2022/07/14 12:30:46;;;;;;;7.50;2.30;;;;;;;;;;5087075;28;20044;-63
2022/07/14 12:33:13;;;;;;;8.52;3.20;;;;;;;;;;5088615;28;20040;-64
2022/07/14 12:35:43;;;;;;;8.02;2.38;;;;;;;;;;5088250;28;20036;-64
2022/07/14 12:38:11;;;;;;;14.82;2.50;;;;;;;;;;5086828;28;20032;-64
2022/07/14 12:40:38;;;;;;;6.60;2.83;;;;;;;;;;5088712;28;20032;-64
2022/07/14 12:43:07;;;;;;;7.57;2.40;;;;;;;;;;5089458;28;20043;-65
2022/07/14 12:45:33;;;;;;;10.55;2.45;;;;;;;;;;5082766;28;20047;-64
2022/07/14 12:48:01;;;;;;;5.45;2.65;;;;;;;;;;5087753;28;20036;-64
2022/07/14 12:50:28;;;;;;;9.35;3.47;;;;;;;;;;5087947;28;20047;-65
2022/07/14 12:52:55;;;;;;;8.57;2.58;;;;;;;;;;5088852;28;20044;-65
2022/07/14 12:55:31;;;;;;;6.75;2.58;;;;;;;;;;5089438;28;20035;-64
2022/07/14 12:57:59;;;;;;;;;;;;;;;;;;5088177;28;20499;-63
2022/07/14 13:00:29;;;;;;;12.15;3.30;;;;;;;;;;5088439;28;19976;-62
2022/07/14 13:03:12;;;;;;;4.65;2.08;;;;;;;;;;5087644;28;20036;-63
2022/07/14 13:05:44;;;;;;;8.63;1.98;;;;;;;;;;5088966;28;20055;-63
2022/07/14 13:08:29;;;;;;;6.47;2.03;;;;;;;;;;5085515;28;20044;-63
2022/07/14 13:10:59;;;;;;;5.30;1.52;;;;;;;;;;5087200;28;20082;-63
2022/07/14 13:13:30;;;;;;;6.75;1.77;;;;;;;;;;5088252;28;20032;-64
2022/07/14 13:16:18;;;;;;;4.22;1.40;;;;;;;;;;5087734;28;20718;-62
2022/07/14 13:19:03;;;;;;;9.20;1.20;;;;;;;;;;5089745;28;20063;-62
2022/07/14 13:21:47;;;;;;;4.63;1.73;;;;;;;;;;5078835;28;20037;-63
2022/07/14 13:24:13;;;;;;;8.40;2.05;;;;;;;;;;5078386;28;20062;-63
2022/07/14 13:26:39;;;;;;;6.47;1.95;;;;;;;;;;5086982;28;20074;-65
2022/07/14 13:29:06;;;;;;;4.00;1.23;;;;;;;;;;5087650;28;20044;-63
2022/07/14 13:31:32;;;;;;;3.67;1.10;;;;;;;;;;5087681;28;20047;-63
2022/07/14 13:34:01;;;;;;;9.40;1.20;;;;;;;;;;5088478;28;20036;-62
2022/07/14 13:36:28;;;;;;;5.63;0.82;;;;;;;;;;5090071;28;20139;-63
2022/07/14 13:38:55;;;;;;;6.88;1.30;;;;;;;;;;5084585;28;20369;-63
2022/07/14 13:41:21;;;;;;;9.40;1.60;;;;;;;;;;5086884;28;20399;-63
2022/07/14 13:43:48;;;;;;;6.88;0.85;;;;;;;;;;5087684;28;20040;-63
2022/07/14 13:46:15;;;;;;;3.08;0.93;;;;;;;;;;5087666;28;20046;-64
2022/07/14 13:48:41;;;;;;;5.45;1.20;;;;;;;;;;5085971;28;20039;-62
2022/07/14 13:52:08;;;;;;;4.10;1.02;;;;;;;;;;5086324;28;20100;-63
2022/07/14 13:54:03;;;;;;;4.50;1.27;;;;;;;;;;5067378;28;20040;-64
2022/07/14 13:56:29;;;;;;;4.20;1.17;;;;;;;;;;5086276;28;20032;-63
2022/07/14 13:58:56;;;;;;;6.28;0.88;;;;;;;;;;5087946;28;20036;-63
2022/07/14 14:01:22;;;;;;;3.35;1.13;;;;;;;;;;5086309;28;20503;-63
2022/07/14 14:03:48;;;;;;;6.18;1.10;;;;;;;;;;5086813;28;20057;-63
2022/07/14 14:06:14;;;;;;;4.88;0.93;;;;;;;;;;5085337;28;20047;-63
2022/07/14 14:08:41;;;;;;;6.18;1.02;;;;;;;;;;5084539;28;20035;-64
2022/07/14 14:11:07;;;;;;;6.85;1.00;;;;;;;;;;5086568;28;21120;-62
2022/07/14 14:13:34;;;;;;;5.18;1.33;;;;;;;;;;5087271;28;20040;-63
2022/07/14 14:16:00;;;;;;;5.18;0.98;;;;;;;;;;5086472;28;20043;-62
2022/07/14 14:18:30;;;;;;;7.15;1.13;;;;;;;;;;5085781;28;20044;-63
2022/07/14 14:20:56;;;;;;;3.72;1.05;;;;;;;;;;5082336;28;20066;-63
2022/07/14 14:23:22;;;;;;;2.80;0.90;;;;;;;;;;5086077;28;20067;-63
2022/07/14 14:25:48;;;;;;;2.53;0.93;;;;;;;;;;5085368;28;20090;-62
2022/07/14 14:28:14;;;;;;;5.03;1.08;;;;;;;;;;5085638;28;20562;-63
2022/07/14 14:30:40;;;;;;;13.23;1.95;;;;;;;;;;5085587;28;20040;-64
2022/07/14 14:33:07;;;;;;;3.75;0.90;;;;;;;;;;5086658;28;20040;-61
2022/07/14 14:35:33;;;;;;;5.07;1.27;;;;;;;;;;5087108;28;20032;-62
2022/07/14 14:38:00;;;;;;;2.05;0.95;;;;;;;;;;5087170;28;20047;-62
2022/07/14 14:40:26;;;;;;;4.18;0.98;;;;;;;;;;5084170;28;20084;-62
2022/07/14 14:42:52;;;;;;;8.73;1.10;;;;;;;;;;5086962;28;20032;-62
2022/07/14 14:45:18;;;;;;;8.00;1.38;;;;;;;;;;5086119;28;20054;-62
2022/07/14 14:47:45;;;;;;;5.60;1.10;;;;;;;;;;5085778;28;20199;-62
2022/07/14 14:50:11;;;;;;;2.90;1.10;;;;;;;;;;5086783;28;20065;-63
2022/07/14 14:52:37;;;;;;;4.25;0.88;;;;;;;;;;5085643;28;20039;-62
2022/07/14 14:55:04;;;;;;;5.00;1.30;;;;;;;;;;5083360;28;20500;-62
2022/07/14 14:57:30;;;;;;;4.50;0.90;;;;;;;;;;5081661;28;20119;-63
2022/07/14 14:59:56;;;;;;;5.72;1.20;;;;;;;;;;5082558;28;20044;-62
2022/07/14 15:02:27;;;;;;;8.63;2.08;;;;;;;;;;5086791;28;20114;-62
2022/07/14 15:04:54;;;;;;;8.55;1.88;;;;;;;;;;5086820;28;20097;-63
2022/07/14 15:07:20;;;;;;;7.05;1.60;;;;;;;;;;5084619;28;20051;-63
2022/07/14 15:09:46;;;;;;;5.05;0.93;;;;;;;;;;5084038;28;20059;-62
2022/07/14 15:12:12;;;;;;;6.18;1.05;;;;;;;;;;5085271;28;20119;-62